Time;durP1;ratioP1;P1;durP2;ratioP2;P2;SDS_P1;SDS_P2;PMS_P1;PMS_P2;Temp;Humidity;BMP_temperature;BMP_pressure;BME280_temperature;BME280_humidity;BME280_pressure;Samples;Min_cycle;Max_cycle;Signal;HPM_P1;HPM_P2
2023/05/25 00:00:14;;;;;;;3.33;1.60;;;14.10;66.60;;;;;;5020106;28;20040;-80
2023/05/25 00:02:41;;;;;;;3.05;1.70;;;14.10;66.60;;;;;;5033979;28;20055;-80
2023/05/25 00:05:10;;;;;;;2.22;1.33;;;14.10;66.60;;;;;;5007343;28;20580;-78
2023/05/25 00:07:36;;;;;;;2.78;1.40;;;14.00;66.90;;;;;;5032219;28;20028;-79
2023/05/25 00:10:02;;;;;;;2.03;1.30;;;14.00;66.60;;;;;;5011440;28;21696;-79
2023/05/25 00:12:28;;;;;;;2.90;1.55;;;14.00;66.70;;;;;;5017753;28;20068;-79
2023/05/25 00:14:54;;;;;;;2.55;1.40;;;13.90;67.00;;;;;;5018531;28;20549;-79
2023/05/25 00:17:20;;;;;;;3.40;1.30;;;13.90;67.10;;;;;;5028751;28;20686;-79
2023/05/25 00:20:12;;;;;;;3.95;1.45;;;13.90;67.20;;;;;;4997827;28;20394;-80
2023/05/25 00:22:38;;;;;;;2.72;1.48;;;13.80;69.30;;;;;;5027788;28;20057;-79
2023/05/25 00:25:05;;;;;;;3.35;1.40;;;13.80;67.40;;;;;;5015333;28;20282;-79
2023/05/25 00:27:31;;;;;;;2.20;1.40;;;13.80;67.60;;;;;;5037359;28;20473;-79
2023/05/25 00:29:57;;;;;;;3.00;1.50;;;13.70;67.70;;;;;;5019654;28;20497;-79
2023/05/25 00:32:23;;;;;;;4.15;1.60;;;13.70;67.70;;;;;;5060197;28;20017;-79
2023/05/25 00:34:49;;;;;;;3.90;1.60;;;13.70;67.90;;;;;;5004285;28;20085;-80
2023/05/25 00:37:15;;;;;;;2.90;1.43;;;13.70;68.10;;;;;;5027218;28;20029;-79
2023/05/25 00:39:40;;;;;;;3.00;1.42;;;13.70;68.10;;;;;;5030248;28;20067;-79
2023/05/25 00:42:07;;;;;;;3.93;1.37;;;13.60;68.20;;;;;;5026243;28;20494;-78
2023/05/25 00:44:33;;;;;;;3.53;1.50;;;13.60;68.40;;;;;;5027508;28;20017;-79
2023/05/25 00:47:03;;;;;;;3.33;1.50;;;13.60;68.40;;;;;;5015700;28;20021;-78
2023/05/25 00:49:32;;;;;;;2.30;1.38;;;13.60;68.60;;;;;;5032486;28;20052;-78
2023/05/25 00:51:58;;;;;;;3.10;1.60;;;13.60;68.80;;;;;;4994101;28;20028;-79
2023/05/25 00:54:24;;;;;;;3.42;1.50;;;13.60;68.60;;;;;;5024200;28;20666;-80
2023/05/25 00:57:06;;;;;;;4.28;1.60;;;13.50;68.60;;;;;;5013863;28;20029;-80
2023/05/25 00:59:43;;;;;;;2.33;1.20;;;13.50;70.30;;;;;;5037682;28;20029;-79
2023/05/25 01:02:10;;;;;;;3.28;1.30;;;13.50;69.60;;;;;;5015506;28;20310;-78
2023/05/25 01:04:59;;;;;;;3.08;1.50;;;13.50;69.90;;;;;;5029708;28;20111;-80
2023/05/25 01:07:26;;;;;;;3.30;1.50;;;13.40;70.90;;;;;;5033852;28;20028;-78
2023/05/25 01:10:01;;;;;;;3.83;1.50;;;13.40;69.30;;;;;;5018977;28;20049;-79
2023/05/25 01:12:28;;;;;;;2.40;1.20;;;13.40;70.30;;;;;;5013772;28;20401;-79
2023/05/25 01:14:55;;;;;;;3.05;1.70;;;13.40;69.40;;;;;;5030998;28;20684;-79
2023/05/25 01:17:21;;;;;;;3.35;1.65;;;13.40;69.50;;;;;;5028491;28;20037;-79
2023/05/25 01:19:47;;;;;;;5.10;1.80;;;13.40;69.50;;;;;;5036002;28;20029;-79
2023/05/25 01:22:25;;;;;;;2.67;1.50;;;13.30;69.60;;;;;;5013904;28;20082;-80
2023/05/25 01:25:00;;;;;;;2.97;1.50;;;13.30;71.00;;;;;;5032171;28;20033;-79
2023/05/25 01:27:42;;;;;;;3.40;1.55;;;13.30;70.10;;;;;;5030924;28;20023;-79
2023/05/25 01:30:11;;;;;;;3.58;1.45;;;13.30;71.00;;;;;;5026091;28;20036;-79
2023/05/25 01:32:37;;;;;;;3.80;1.60;;;13.20;69.90;;;;;;5025813;28;20086;-79
2023/05/25 01:35:04;;;;;;;3.40;1.50;;;13.20;69.80;;;;;;5038413;28;20032;-78
2023/05/25 01:37:31;;;;;;;3.47;1.60;;;13.20;70.10;;;;;;5029587;28;20057;-80
2023/05/25 01:39:57;;;;;;;2.78;1.45;;;13.10;70.20;;;;;;5017891;28;20142;-78
2023/05/25 01:42:23;;;;;;;2.50;1.60;;;13.10;70.20;;;;;;5050391;28;20033;-79
2023/05/25 01:44:49;;;;;;;3.20;1.53;;;13.10;70.40;;;;;;5016168;28;20112;-79
2023/05/25 01:47:26;;;;;;;3.22;1.60;;;13.10;70.40;;;;;;5014240;28;20171;-79
2023/05/25 01:50:10;;;;;;;2.95;1.40;;;13.10;70.70;;;;;;5033538;28;20954;-78
2023/05/25 01:52:46;;;;;;;4.90;1.55;;;13.00;71.40;;;;;;5017733;28;20143;-80
2023/05/25 01:55:15;;;;;;;2.93;1.43;;;13.00;71.50;;;;;;5009219;28;20124;-78
2023/05/25 01:57:44;;;;;;;3.40;1.52;;;13.00;71.10;;;;;;5019026;28;20040;-80
2023/05/25 02:00:12;;;;;;;4.38;1.45;;;13.00;71.20;;;;;;5003041;28;20221;-79
2023/05/25 02:02:41;;;;;;;3.47;1.50;;;12.90;71.00;;;;;;4991403;28;20048;-79
2023/05/25 02:05:08;;;;;;;2.50;1.50;;;12.90;71.30;;;;;;4991437;28;20064;-78
2023/05/25 02:07:35;;;;;;;2.60;1.40;;;12.90;71.30;;;;;;5012338;28;20330;-79
2023/05/25 02:10:00;;;;;;;4.72;1.60;;;12.90;71.30;;;;;;4981378;28;20503;-78
2023/05/25 02:12:27;;;;;;;2.75;1.60;;;12.90;71.20;;;;;;5025679;28;20112;-79
2023/05/25 02:14:53;;;;;;;2.83;1.60;;;12.90;71.50;;;;;;4997414;28;20610;-78
2023/05/25 02:17:19;;;;;;;2.33;1.47;;;12.90;71.40;;;;;;5009494;28;20037;-78
2023/05/25 02:19:47;;;;;;;3.67;1.48;;;12.90;71.50;;;;;;5000246;28;20250;-78
2023/05/25 02:22:13;;;;;;;2.65;1.50;;;12.80;71.70;;;;;;5009565;28;20475;-78
2023/05/25 02:24:39;;;;;;;2.60;1.33;;;12.80;71.80;;;;;;4978447;28;20040;-79
2023/05/25 02:27:05;;;;;;;3.40;1.50;;;12.80;72.00;;;;;;5007900;28;20044;-78
2023/05/25 02:29:31;;;;;;;3.30;1.48;;;12.80;72.10;;;;;;5003866;28;20450;-79
2023/05/25 02:31:58;;;;;;;4.07;1.65;;;12.70;72.10;;;;;;5000740;28;20065;-77
2023/05/25 02:34:23;;;;;;;4.30;1.90;;;12.70;72.20;;;;;;4998357;28;20036;-79
2023/05/25 02:36:49;;;;;;;3.57;1.57;;;12.70;72.20;;;;;;5014336;28;20100;-78
2023/05/25 02:39:15;;;;;;;3.08;1.60;;;12.60;72.20;;;;;;4987097;28;20104;-79
2023/05/25 02:41:41;;;;;;;4.10;1.70;;;12.60;72.40;;;;;;5023951;28;20535;-78
2023/05/25 02:44:07;;;;;;;3.03;1.42;;;12.60;72.40;;;;;;5016332;28;20075;-79
2023/05/25 02:46:33;;;;;;;3.55;1.70;;;12.60;72.50;;;;;;5003491;28;20115;-79
2023/05/25 02:49:00;;;;;;;3.03;1.42;;;12.60;72.70;;;;;;5034999;28;20021;-77
2023/05/25 02:51:27;;;;;;;3.17;1.42;;;12.50;72.70;;;;;;5024382;28;20041;-79
2023/05/25 02:53:53;;;;;;;4.10;1.57;;;12.50;72.70;;;;;;5026747;28;20127;-78
2023/05/25 02:56:21;;;;;;;2.72;1.42;;;12.50;72.70;;;;;;5007265;28;20036;-78
2023/05/25 02:58:48;;;;;;;3.47;1.70;;;12.50;72.90;;;;;;5034423;28;20370;-78
2023/05/25 03:01:17;;;;;;;5.30;1.70;;;12.40;72.90;;;;;;5028331;28;20128;-78
2023/05/25 03:03:46;;;;;;;3.75;1.42;;;12.40;72.90;;;;;;5036782;28;20043;-78
2023/05/25 03:06:13;;;;;;;3.17;1.47;;;12.40;73.60;;;;;;5020847;28;20182;-78
2023/05/25 03:08:40;;;;;;;4.07;1.42;;;12.40;73.40;;;;;;5044530;28;20044;-78
2023/05/25 03:11:06;;;;;;;3.42;1.60;;;12.40;73.40;;;;;;4994007;28;20239;-79
2023/05/25 03:13:31;;;;;;;3.30;1.80;;;12.30;73.00;;;;;;5030486;28;20031;-78
2023/05/25 03:15:57;;;;;;;3.47;1.30;;;12.30;73.30;;;;;;5019203;28;20040;-79
2023/05/25 03:18:24;;;;;;;2.80;1.50;;;12.30;73.20;;;;;;5027689;28;21458;-77
2023/05/25 03:20:50;;;;;;;3.50;1.70;;;12.30;73.70;;;;;;5024906;28;20065;-80
2023/05/25 03:23:16;;;;;;;3.15;1.50;;;12.30;73.60;;;;;;5020720;28;20164;-78
2023/05/25 03:25:42;;;;;;;2.90;1.70;;;12.20;73.60;;;;;;5029194;28;20044;-79
2023/05/25 03:28:07;;;;;;;3.80;1.77;;;12.20;73.70;;;;;;4996489;28;20108;-78
2023/05/25 03:30:33;;;;;;;4.28;1.67;;;12.20;74.00;;;;;;5030138;28;20087;-78
2023/05/25 03:32:59;;;;;;;3.63;1.60;;;12.20;74.00;;;;;;5014974;28;20037;-79
2023/05/25 03:35:25;;;;;;;2.50;1.33;;;12.20;74.20;;;;;;5029502;28;20025;-78
2023/05/25 03:37:51;;;;;;;3.47;1.50;;;12.20;74.10;;;;;;5019764;28;21007;-79
2023/05/25 03:40:16;;;;;;;3.23;1.60;;;12.10;74.00;;;;;;5031800;28;20243;-77
2023/05/25 03:42:42;;;;;;;3.70;1.40;;;12.10;74.00;;;;;;5000792;28;20021;-79
2023/05/25 03:45:08;;;;;;;3.57;1.50;;;12.10;74.00;;;;;;5025493;28;20041;-78
2023/05/25 03:47:35;;;;;;;3.08;1.55;;;12.10;74.00;;;;;;5019051;28;20029;-78
2023/05/25 03:50:03;;;;;;;2.53;1.30;;;12.10;74.10;;;;;;5026720;28;20021;-77
2023/05/25 03:52:29;;;;;;;3.05;1.38;;;12.10;74.20;;;;;;5019517;28;20037;-78
2023/05/25 03:54:55;;;;;;;3.40;1.73;;;12.10;74.20;;;;;;5028310;28;20041;-79
2023/05/25 03:57:21;;;;;;;3.63;1.67;;;12.00;74.00;;;;;;5021987;28;20055;-78
2023/05/25 03:59:49;;;;;;;3.58;1.52;;;12.00;74.30;;;;;;5026464;28;20118;-79
2023/05/25 04:02:15;;;;;;;2.72;1.60;;;12.00;74.50;;;;;;5032234;28;20029;-78
2023/05/25 04:04:43;;;;;;;3.03;1.58;;;11.90;74.60;;;;;;5028081;28;20041;-79
2023/05/25 04:07:10;;;;;;;3.87;1.60;;;11.90;74.80;;;;;;5013047;28;20300;-78
2023/05/25 04:09:36;;;;;;;3.17;1.70;;;11.90;74.90;;;;;;5027786;28;20021;-79
2023/05/25 04:12:02;;;;;;;3.47;1.50;;;11.90;75.00;;;;;;4986861;28;20060;-78
2023/05/25 04:14:27;;;;;;;3.50;1.50;;;11.90;75.00;;;;;;5051343;28;20245;-77
2023/05/25 04:16:53;;;;;;;3.63;1.70;;;11.90;75.00;;;;;;5026537;28;20449;-79
2023/05/25 04:19:19;;;;;;;3.35;1.75;;;11.90;75.00;;;;;;5018595;28;21529;-78
2023/05/25 04:21:45;;;;;;;3.60;1.60;;;11.90;75.00;;;;;;5027481;28;20029;-79
2023/05/25 04:24:10;;;;;;;3.22;1.50;;;11.90;75.20;;;;;;5018781;28;21105;-77
2023/05/25 04:26:38;;;;;;;3.80;1.50;;;11.90;75.20;;;;;;5031319;28;20086;-79
2023/05/25 04:29:04;;;;;;;2.97;1.43;;;11.90;75.20;;;;;;4999423;28;20344;-78
2023/05/25 04:31:30;;;;;;;2.75;1.60;;;11.90;75.30;;;;;;5037643;28;20487;-77
2023/05/25 04:33:57;;;;;;;2.40;1.45;;;12.00;75.50;;;;;;5018079;28;20411;-79
2023/05/25 04:36:23;;;;;;;3.90;1.80;;;12.00;75.70;;;;;;5029417;28;20447;-78
2023/05/25 04:38:51;;;;;;;3.70;1.53;;;11.90;75.60;;;;;;5024582;28;20390;-78
2023/05/25 04:41:17;;;;;;;3.88;1.52;;;12.00;75.70;;;;;;5038351;28;20514;-78
2023/05/25 04:43:45;;;;;;;4.53;1.73;;;12.00;75.90;;;;;;5031035;28;20712;-79
2023/05/25 04:46:15;;;;;;;2.42;1.42;;;12.00;76.00;;;;;;5026678;28;20041;-78
2023/05/25 04:48:42;;;;;;;3.58;1.50;;;12.00;76.00;;;;;;5034712;28;20029;-79
2023/05/25 04:51:08;;;;;;;2.83;1.50;;;12.00;76.10;;;;;;5024262;28;20803;-79
2023/05/25 04:53:36;;;;;;;3.65;1.77;;;12.10;76.20;;;;;;5043051;28;20342;-80
2023/05/25 04:56:02;;;;;;;5.88;1.70;;;12.10;76.20;;;;;;5037123;28;20241;-78
2023/05/25 04:58:28;;;;;;;3.25;1.77;;;12.20;75.80;;;;;;5040078;28;20104;-77
2023/05/25 05:00:55;;;;;;;4.23;1.77;;;12.20;76.20;;;;;;4988970;28;20159;-80
2023/05/25 05:03:21;;;;;;;3.08;1.55;;;12.20;76.60;;;;;;5017161;28;20041;-79
2023/05/25 05:05:47;;;;;;;3.90;1.70;;;12.20;76.60;;;;;;5027788;28;20036;-77
2023/05/25 05:08:13;;;;;;;4.50;1.67;;;12.20;76.70;;;;;;5017348;28;20037;-80
2023/05/25 05:10:39;;;;;;;3.40;1.50;;;12.20;76.70;;;;;;5015542;28;20033;-79
2023/05/25 05:13:04;;;;;;;3.53;1.58;;;12.30;76.70;;;;;;5033847;28;20874;-78
2023/05/25 05:15:30;;;;;;;3.43;1.70;;;12.30;76.80;;;;;;4980645;28;20698;-78
2023/05/25 05:17:57;;;;;;;3.47;1.58;;;12.40;76.60;;;;;;5017839;28;20154;-79
2023/05/25 05:20:23;;;;;;;4.53;1.75;;;12.40;76.80;;;;;;5016477;28;20052;-79
2023/05/25 05:22:49;;;;;;;3.80;1.70;;;12.40;76.70;;;;;;5030362;28;20115;-77
2023/05/25 05:25:14;;;;;;;4.67;1.63;;;12.40;76.80;;;;;;5019355;28;20128;-79
2023/05/25 05:27:40;;;;;;;3.63;1.60;;;12.50;76.80;;;;;;5014427;28;20368;-78
2023/05/25 05:30:07;;;;;;;4.27;2.00;;;12.50;76.80;;;;;;5005567;28;20029;-79
2023/05/25 05:32:32;;;;;;;4.38;1.70;;;12.60;76.70;;;;;;5030387;28;20150;-76
2023/05/25 05:34:59;;;;;;;3.07;1.70;;;12.60;76.80;;;;;;5030502;28;20481;-78
2023/05/25 05:37:25;;;;;;;2.60;1.60;;;12.60;76.80;;;;;;5012747;28;20029;-78
2023/05/25 05:39:52;;;;;;;3.38;1.80;;;12.70;76.90;;;;;;5019003;28;20402;-78
2023/05/25 05:42:18;;;;;;;4.35;2.10;;;12.70;77.10;;;;;;5014741;28;20028;-80
2023/05/25 05:44:43;;;;;;;4.45;2.10;;;12.80;77.20;;;;;;5048969;28;20386;-78
2023/05/25 05:47:09;;;;;;;3.73;1.70;;;12.80;77.20;;;;;;4998841;28;20021;-79
2023/05/25 05:49:37;;;;;;;3.38;1.75;;;12.90;77.10;;;;;;5023757;28;20176;-79
2023/05/25 05:52:03;;;;;;;4.03;1.88;;;12.90;77.20;;;;;;5021263;28;20516;-80
2023/05/25 05:54:29;;;;;;;3.20;1.67;;;12.90;77.10;;;;;;5014080;28;20518;-80
2023/05/25 05:56:55;;;;;;;3.30;1.80;;;13.00;77.10;;;;;;5037535;28;20549;-78
2023/05/25 05:59:21;;;;;;;2.97;1.70;;;13.00;77.30;;;;;;5032851;28;20029;-80
2023/05/25 06:01:48;;;;;;;3.80;1.70;;;13.10;77.30;;;;;;5007132;28;20044;-79
2023/05/25 06:04:14;;;;;;;3.92;1.90;;;13.20;77.40;;;;;;5000516;28;20029;-79
2023/05/25 06:06:41;;;;;;;2.53;1.57;;;13.30;78.00;;;;;;5018511;28;20082;-80
2023/05/25 06:09:07;;;;;;;5.47;2.33;;;13.30;77.20;;;;;;5031031;28;20458;-78
2023/05/25 06:11:36;;;;;;;4.10;1.88;;;13.40;77.20;;;;;;5006128;28;20025;-80
2023/05/25 06:14:08;;;;;;;6.25;1.90;;;13.50;77.30;;;;;;5023309;28;20140;-78
2023/05/25 06:16:34;;;;;;;4.15;2.00;;;13.50;77.30;;;;;;5011191;28;20074;-79
2023/05/25 06:19:00;;;;;;;4.53;1.83;;;13.60;77.00;;;;;;5055267;28;20021;-78
2023/05/25 06:21:26;;;;;;;3.33;1.83;;;13.70;77.40;;;;;;5030841;28;20025;-80
2023/05/25 06:23:51;;;;;;;3.38;1.80;;;13.80;77.60;;;;;;5023539;28;20038;-81
2023/05/25 06:26:17;;;;;;;4.43;1.90;;;13.80;77.50;;;;;;5009455;28;20028;-80
2023/05/25 06:28:45;;;;;;;3.45;1.90;;;13.90;77.30;;;;;;5030024;28;20029;-80
2023/05/25 06:31:11;;;;;;;3.95;1.98;;;14.00;77.40;;;;;;5006484;28;20218;-78
2023/05/25 06:33:37;;;;;;;5.37;2.20;;;14.10;77.70;;;;;;5027309;28;20438;-78
2023/05/25 06:36:03;;;;;;;3.83;1.92;;;14.20;77.60;;;;;;5051767;28;20076;-79
2023/05/25 06:38:28;;;;;;;4.10;1.98;;;14.30;77.50;;;;;;5027191;28;20029;-79
2023/05/25 06:40:54;;;;;;;4.03;2.00;;;14.40;77.60;;;;;;5011648;28;20938;-81
2023/05/25 06:43:21;;;;;;;4.18;2.30;;;14.50;77.50;;;;;;5036547;28;20035;-79
2023/05/25 06:45:46;;;;;;;6.65;2.63;;;14.50;77.40;;;;;;5030340;28;20489;-80
2023/05/25 06:48:12;;;;;;;5.43;2.63;;;14.60;77.50;;;;;;5006046;28;20092;-78
2023/05/25 06:50:38;;;;;;;6.13;2.00;;;14.70;77.40;;;;;;5021029;28;20029;-81
2023/05/25 06:53:05;;;;;;;4.30;2.00;;;14.70;77.40;;;;;;5032099;28;20152;-80
2023/05/25 06:55:31;;;;;;;3.97;1.90;;;14.80;77.40;;;;;;5026409;28;20040;-79
2023/05/25 06:57:56;;;;;;;3.00;1.80;;;14.90;77.50;;;;;;5006047;28;20257;-80
2023/05/25 07:00:22;;;;;;;4.20;2.08;;;15.00;77.50;;;;;;5033067;28;20446;-79
2023/05/25 07:02:48;;;;;;;4.37;1.80;;;15.10;77.40;;;;;;5012491;28;20443;-80
2023/05/25 07:05:14;;;;;;;5.03;1.98;;;15.10;77.30;;;;;;5020241;28;20029;-79
2023/05/25 07:07:39;;;;;;;3.30;2.10;;;15.30;77.50;;;;;;5033005;28;20024;-81
2023/05/25 07:10:06;;;;;;;3.78;1.90;;;15.40;77.40;;;;;;5018747;28;20833;-79
2023/05/25 07:12:32;;;;;;;5.13;2.33;;;15.50;77.20;;;;;;5013351;28;20044;-80
2023/05/25 07:14:57;;;;;;;5.40;2.10;;;15.60;77.10;;;;;;5027438;28;20041;-80
2023/05/25 07:17:23;;;;;;;5.15;1.92;;;15.60;77.10;;;;;;5028607;28;20029;-79
2023/05/25 07:19:49;;;;;;;4.10;1.85;;;15.70;77.20;;;;;;4988940;28;20037;-81
2023/05/25 07:22:17;;;;;;;4.37;1.83;;;15.80;77.20;;;;;;5027701;28;20023;-80
2023/05/25 07:24:47;;;;;;;5.00;2.20;;;15.90;77.10;;;;;;5034610;28;20036;-79
2023/05/25 07:27:13;;;;;;;5.10;2.30;;;16.00;76.90;;;;;;5022506;28;20052;-79
2023/05/25 07:29:39;;;;;;;4.78;1.95;;;16.10;76.80;;;;;;5019489;28;20025;-79
2023/05/25 07:32:05;;;;;;;4.60;2.20;;;16.20;76.70;;;;;;5026034;28;20056;-78
2023/05/25 07:34:32;;;;;;;5.07;2.25;;;16.30;76.50;;;;;;4991295;28;20029;-78
2023/05/25 07:36:58;;;;;;;4.65;1.95;;;16.40;76.50;;;;;;5020971;28;20313;-78
2023/05/25 07:39:24;;;;;;;4.93;2.30;;;16.50;76.60;;;;;;5037861;28;20072;-78
2023/05/25 07:41:49;;;;;;;4.13;2.20;;;16.50;76.60;;;;;;5024269;28;20371;-79
2023/05/25 07:44:15;;;;;;;5.22;2.33;;;16.70;77.30;;;;;;5019592;28;20368;-79
2023/05/25 07:46:42;;;;;;;4.50;2.27;;;16.80;77.70;;;;;;5032299;28;20072;-81
2023/05/25 07:49:12;;;;;;;4.68;1.98;;;17.10;78.20;;;;;;5033953;28;20092;-79
2023/05/25 07:51:38;;;;;;;3.22;1.70;;;17.40;78.70;;;;;;4996865;28;20049;-80
2023/05/25 07:54:04;;;;;;;3.17;1.58;;;17.70;78.60;;;;;;5060394;28;20084;-79
2023/05/25 07:56:30;;;;;;;4.47;1.90;;;18.00;78.50;;;;;;5033168;28;20486;-80
2023/05/25 07:58:56;;;;;;;3.92;2.10;;;18.30;78.60;;;;;;5017010;28;20036;-80
2023/05/25 08:01:23;;;;;;;4.53;2.15;;;18.60;78.60;;;;;;5018305;28;20197;-80
2023/05/25 08:03:49;;;;;;;4.60;2.10;;;18.80;78.70;;;;;;5028754;28;20418;-80
2023/05/25 08:06:15;;;;;;;2.97;1.90;;;19.20;79.30;;;;;;5005789;28;20777;-79
2023/05/25 08:08:43;;;;;;;4.45;1.98;;;19.60;79.80;;;;;;5019695;28;20021;-81
2023/05/25 08:11:10;;;;;;;4.30;1.90;;;20.00;80.00;;;;;;5027918;28;20120;-79
2023/05/25 08:13:37;;;;;;;3.47;1.83;;;20.50;79.70;;;;;;5023139;28;20033;-80
2023/05/25 08:16:03;;;;;;;4.65;1.67;;;21.00;79.30;;;;;;5012899;28;20052;-80
2023/05/25 08:18:30;;;;;;;3.92;1.80;;;21.50;79.00;;;;;;5033523;28;20024;-77
2023/05/25 08:20:56;;;;;;;2.65;1.73;;;22.00;78.50;;;;;;5028755;28;20650;-78
2023/05/25 08:23:22;;;;;;;3.47;1.75;;;22.40;77.70;;;;;;5008177;28;20025;-79
2023/05/25 08:25:48;;;;;;;3.37;1.80;;;22.90;77.30;;;;;;5027818;28;20036;-80
2023/05/25 08:28:15;;;;;;;3.17;1.70;;;23.20;75.90;;;;;;5059485;28;20025;-79
2023/05/25 08:30:42;;;;;;;3.35;1.50;;;23.60;74.70;;;;;;5022013;28;20086;-80
2023/05/25 08:33:09;;;;;;;3.13;1.50;;;23.90;74.60;;;;;;5026009;28;20037;-79
2023/05/25 08:35:39;;;;;;;3.65;1.60;;;24.30;73.10;;;;;;5032992;28;20196;-80
2023/05/25 08:38:05;;;;;;;3.00;1.48;;;24.50;72.50;;;;;;5009014;28;20700;-80
2023/05/25 08:40:32;;;;;;;4.30;1.90;;;24.80;71.80;;;;;;5034420;28;20024;-79
2023/05/25 08:42:57;;;;;;;3.10;1.65;;;25.00;70.80;;;;;;5021515;28;20485;-77
2023/05/25 08:45:23;;;;;;;4.37;1.60;;;25.20;70.60;;;;;;5030287;28;20590;-78
2023/05/25 08:47:52;;;;;;;5.30;1.60;;;25.40;70.20;;;;;;5020910;28;20398;-78
2023/05/25 08:50:19;;;;;;;4.18;1.70;;;25.50;67.70;;;;;;5034266;28;20053;-78
2023/05/25 08:52:45;;;;;;;3.40;1.70;;;25.50;67.20;;;;;;5017517;28;20128;-80
2023/05/25 08:55:13;;;;;;;3.72;1.90;;;25.60;66.30;;;;;;5060066;28;20518;-78
2023/05/25 08:58:06;;;;;;;3.40;1.52;;;25.70;66.10;;;;;;5029874;28;20087;-80
2023/05/25 09:00:35;;;;;;;2.70;1.58;;;25.80;64.80;;;;;;5034803;28;20078;-80
2023/05/25 09:03:16;;;;;;;2.30;1.50;;;26.00;66.70;;;;;;5012848;28;20033;-79
2023/05/25 09:05:42;;;;;;;2.13;1.33;;;26.20;65.20;;;;;;5032692;28;20266;-80
2023/05/25 09:08:09;;;;;;;2.28;1.52;;;26.50;66.50;;;;;;5006589;28;20025;-80
2023/05/25 09:10:36;;;;;;;4.40;1.90;;;26.80;66.80;;;;;;5032601;28;20442;-79
2023/05/25 09:13:03;;;;;;;3.67;1.70;;;27.00;64.00;;;;;;5031407;28;20351;-78
2023/05/25 09:15:32;;;;;;;4.15;1.50;;;27.10;61.90;;;;;;5033141;28;20664;-79
2023/05/25 09:17:58;;;;;;;4.37;1.80;;;27.00;61.60;;;;;;5023758;28;20025;-80
2023/05/25 09:20:30;;;;;;;1.80;1.30;;;26.90;58.90;;;;;;4997806;28;20052;-80
2023/05/25 09:22:58;;;;;;;3.13;1.45;;;26.60;58.60;;;;;;5002284;28;28033;-79
2023/05/25 09:25:26;;;;;;;4.03;1.95;;;26.40;58.60;;;;;;5032692;28;20530;-80
2023/05/25 09:27:52;;;;;;;3.07;1.50;;;26.20;58.60;;;;;;5027967;28;20119;-80
2023/05/25 09:30:18;;;;;;;3.30;1.60;;;26.00;59.10;;;;;;5020091;28;20028;-78
2023/05/25 09:32:43;;;;;;;3.38;1.40;;;25.90;59.60;;;;;;5026475;28;20037;-81
2023/05/25 09:35:13;;;;;;;2.97;1.20;;;25.90;60.00;;;;;;5009366;28;20059;-80
2023/05/25 09:37:41;;;;;;;2.97;1.55;;;26.10;59.10;;;;;;5013738;28;20043;-81
2023/05/25 09:40:09;;;;;;;3.40;1.52;;;26.20;59.70;;;;;;5009249;28;20138;-80
2023/05/25 09:42:36;;;;;;;2.30;1.50;;;26.40;60.00;;;;;;5030509;28;20033;-80
2023/05/25 09:45:03;;;;;;;2.40;1.38;;;26.50;59.60;;;;;;5026168;28;20697;-80
2023/05/25 09:47:29;;;;;;;2.43;1.50;;;26.70;60.00;;;;;;5034696;28;20012;-79
2023/05/25 09:49:56;;;;;;;2.50;1.33;;;27.00;59.50;;;;;;5019783;28;20290;-80
2023/05/25 09:52:22;;;;;;;3.35;1.70;;;27.20;58.40;;;;;;5037826;28;20896;-78
2023/05/25 09:54:49;;;;;;;2.90;1.50;;;27.30;58.00;;;;;;5010313;28;20044;-79
2023/05/25 09:57:15;;;;;;;1.77;1.30;;;27.30;56.40;;;;;;5040730;28;20546;-78
2023/05/25 09:59:42;;;;;;;2.57;1.40;;;27.30;56.10;;;;;;5037612;28;20509;-80
2023/05/25 10:02:08;;;;;;;1.98;1.40;;;27.20;56.00;;;;;;5017104;28;20755;-80
2023/05/25 10:04:34;;;;;;;2.65;1.50;;;27.20;55.60;;;;;;5036533;28;20065;-80
2023/05/25 10:07:00;;;;;;;2.78;1.50;;;27.10;54.00;;;;;;5023927;28;20586;-78
2023/05/25 10:09:29;;;;;;;3.23;1.77;;;26.90;53.70;;;;;;5014246;28;20029;-79
2023/05/25 10:11:57;;;;;;;1.85;1.48;;;26.70;53.30;;;;;;5034264;28;20143;-79
2023/05/25 10:14:26;;;;;;;2.45;1.55;;;26.60;53.30;;;;;;5038832;28;20033;-77
2023/05/25 10:16:58;;;;;;;2.90;1.60;;;26.40;53.40;;;;;;5037268;28;20115;-81
2023/05/25 10:19:40;;;;;;;2.70;1.50;;;26.40;52.90;;;;;;5040169;28;20021;-78
2023/05/25 10:22:18;;;;;;;2.30;1.30;;;26.30;53.60;;;;;;5023594;28;20063;-78
2023/05/25 10:24:58;;;;;;;2.90;1.33;;;26.30;54.10;;;;;;5035930;28;20334;-79
2023/05/25 10:27:28;;;;;;;2.55;1.42;;;26.20;53.20;;;;;;5042209;28;20021;-79
2023/05/25 10:29:55;;;;;;;2.13;1.40;;;26.10;52.60;;;;;;5018239;28;20024;-79
2023/05/25 10:32:21;;;;;;;3.42;1.50;;;26.00;52.90;;;;;;5038164;28;20032;-79
2023/05/25 10:34:49;;;;;;;1.67;1.20;;;25.90;53.10;;;;;;5038038;28;20021;-81
2023/05/25 10:37:17;;;;;;;2.80;1.50;;;25.80;53.50;;;;;;5025855;28;20051;-79
2023/05/25 10:39:44;;;;;;;3.03;1.60;;;25.80;52.90;;;;;;5039571;28;20029;-79
2023/05/25 10:42:12;;;;;;;2.47;1.50;;;25.90;53.70;;;;;;5012657;28;20127;-78
2023/05/25 10:44:41;;;;;;;2.45;1.60;;;26.00;54.30;;;;;;5040896;28;20028;-80
2023/05/25 10:47:09;;;;;;;1.70;1.23;;;26.10;53.70;;;;;;5021445;28;20301;-76
2023/05/25 10:49:57;;;;;;;2.50;1.30;;;26.20;53.00;;;;;;5037815;28;20057;-82
2023/05/25 10:52:30;;;;;;;3.95;1.80;;;26.00;52.10;;;;;;5036633;28;20510;-79
2023/05/25 10:55:02;;;;;;;3.55;1.80;;;25.90;52.20;;;;;;5020493;28;20048;-79
2023/05/25 10:57:28;;;;;;;2.75;1.63;;;25.80;52.10;;;;;;5027935;28;20037;-79
2023/05/25 11:00:05;;;;;;;2.87;1.73;;;25.70;52.10;;;;;;5050260;28;20045;-78
2023/05/25 11:02:53;;;;;;;3.65;1.60;;;25.60;52.10;;;;;;5040966;28;20427;-77
2023/05/25 11:05:25;;;;;;;5.00;1.90;;;25.40;51.80;;;;;;5035436;28;20021;-76
2023/05/25 11:07:58;;;;;;;3.28;1.65;;;25.30;52.10;;;;;;5035658;28;20044;-79
2023/05/25 11:10:49;;;;;;;2.72;1.55;;;25.20;52.10;;;;;;5040138;28;20039;-81
2023/05/25 11:13:34;;;;;;;2.23;1.33;;;25.10;52.10;;;;;;5011985;28;20041;-79
2023/05/25 11:16:23;;;;;;;2.33;1.40;;;25.10;52.90;;;;;;5034847;28;20389;-76
2023/05/25 11:18:57;;;;;;;2.33;1.52;;;25.10;53.10;;;;;;5018350;28;20029;-79
2023/05/25 11:21:26;;;;;;;2.70;1.40;;;25.20;52.80;;;;;;5036693;28;20028;-79
2023/05/25 11:24:02;;;;;;;2.35;1.42;;;25.30;52.90;;;;;;5021355;28;20345;-78
2023/05/25 11:26:31;;;;;;;1.90;1.30;;;25.30;53.60;;;;;;5038703;28;20047;-79
2023/05/25 11:28:58;;;;;;;2.40;1.42;;;25.40;53.40;;;;;;5006024;28;20021;-78
2023/05/25 11:31:31;;;;;;;3.20;1.63;;;25.50;53.40;;;;;;5035050;28;20230;-79
2023/05/25 11:34:03;;;;;;;2.50;1.45;;;25.60;52.80;;;;;;5020618;28;21143;-79
2023/05/25 11:36:32;;;;;;;3.00;1.55;;;25.60;52.50;;;;;;5038519;28;20042;-79
2023/05/25 11:39:03;;;;;;;2.40;1.50;;;25.80;53.20;;;;;;5034535;28;20237;-80
2023/05/25 11:41:30;;;;;;;2.40;1.50;;;25.80;52.50;;;;;;5026136;28;20029;-80
2023/05/25 11:44:04;;;;;;;2.85;1.70;;;25.90;52.30;;;;;;5009976;28;20021;-78
2023/05/25 11:46:31;;;;;;;2.15;1.50;;;25.80;51.80;;;;;;5037227;28;20031;-80
2023/05/25 11:48:58;;;;;;;2.67;1.80;;;25.80;52.00;;;;;;5036418;28;20021;-79
2023/05/25 11:51:26;;;;;;;3.90;1.70;;;25.80;51.60;;;;;;5026473;28;20076;-78
2023/05/25 11:53:51;;;;;;;3.00;1.50;;;25.70;51.10;;;;;;5030636;28;20063;-78
2023/05/25 11:56:18;;;;;;;2.72;1.60;;;25.60;51.40;;;;;;5038756;28;20024;-79
2023/05/25 11:58:47;;;;;;;3.35;1.77;;;25.50;51.20;;;;;;5039342;28;20032;-81
2023/05/25 12:01:13;;;;;;;2.07;1.50;;;25.40;50.90;;;;;;5014597;28;20109;-77
2023/05/25 12:03:39;;;;;;;2.38;1.48;;;25.30;51.20;;;;;;5038673;28;20029;-80
2023/05/25 12:06:04;;;;;;;2.70;1.65;;;25.20;51.30;;;;;;5023839;28;20025;-78
2023/05/25 12:08:32;;;;;;;3.13;1.77;;;25.10;51.40;;;;;;5037098;28;20258;-78
2023/05/25 12:10:58;;;;;;;3.05;1.70;;;25.00;50.90;;;;;;5003590;28;20530;-79
2023/05/25 12:13:25;;;;;;;4.55;2.10;;;24.90;51.00;;;;;;5034415;28;20047;-80
2023/05/25 12:15:54;;;;;;;4.37;2.00;;;24.80;51.10;;;;;;5009584;28;20083;-79
2023/05/25 12:18:20;;;;;;;3.22;1.50;;;24.70;51.10;;;;;;5038119;28;20051;-79
2023/05/25 12:20:45;;;;;;;3.05;1.58;;;24.60;51.50;;;;;;5043366;28;20493;-78
2023/05/25 12:23:13;;;;;;;2.83;1.70;;;24.60;51.60;;;;;;5046902;28;20052;-78
2023/05/25 12:25:39;;;;;;;2.50;1.40;;;24.50;51.40;;;;;;5030470;28;20033;-80
2023/05/25 12:28:13;;;;;;;4.23;1.70;;;24.50;51.50;;;;;;5010658;28;20036;-79
2023/05/25 12:30:39;;;;;;;2.58;1.40;;;24.40;52.00;;;;;;5024515;28;20025;-80
2023/05/25 12:33:06;;;;;;;4.18;1.80;;;24.30;52.50;;;;;;5051765;28;20106;-76
2023/05/25 12:35:49;;;;;;;3.67;1.80;;;24.40;52.70;;;;;;5021245;28;20025;-78
2023/05/25 12:38:17;;;;;;;3.73;1.70;;;24.40;52.40;;;;;;5036245;28;20309;-79
2023/05/25 12:40:43;;;;;;;5.28;2.15;;;24.40;52.50;;;;;;5032433;28;20570;-81
2023/05/25 12:43:12;;;;;;;3.55;1.70;;;24.40;52.20;;;;;;5021073;28;20511;-78
2023/05/25 12:45:40;;;;;;;3.95;1.75;;;24.30;52.70;;;;;;5025479;28;20041;-80
2023/05/25 12:48:06;;;;;;;3.33;1.90;;;24.30;52.50;;;;;;5030659;28;20491;-79
2023/05/25 12:50:32;;;;;;;2.70;1.60;;;24.30;52.70;;;;;;5040861;28;20120;-79